Time;durP1;ratioP1;P1;durP2;ratioP2;P2;SDS_P1;SDS_P2;PMS_P1;PMS_P2;Temp;Humidity;BMP_temperature;BMP_pressure;BME280_temperature;BME280_humidity;BME280_pressure;Samples;Min_cycle;Max_cycle;Signal;HPM_P1;HPM_P2
2021/08/06 00:00:11;;;;;;;;;;;20.60;94.40;20.70;98910.00;;;;344764;28;83357;-90
2021/08/06 00:00:23;;;;;;;;;;;20.60;94.40;20.70;98903.00;;;;344104;28;90825;-89
2021/08/06 00:00:35;;;;;;;;;;;20.60;94.50;20.70;98904.00;;;;344691;28;82648;-89
2021/08/06 00:00:47;;;;;;;;;;;20.60;94.50;20.70;98905.00;;;;344006;28;90251;-89
2021/08/06 00:00:59;;;;;;;;;;;20.60;94.40;20.70;98905.00;;;;344737;28;83293;-90
2021/08/06 00:01:12;;;;;;;;;;;20.60;94.30;20.60;98900.00;;;;344435;28;90079;-89
2021/08/06 00:01:23;;;;;;;;;;;20.60;94.50;20.70;98904.00;;;;344893;28;83778;-89
2021/08/06 00:01:35;;;;;;;;;;;20.60;94.40;20.70;98897.00;;;;344067;28;89681;-89
2021/08/06 00:01:48;;;;;;;;;;;20.60;94.50;20.70;98906.00;;;;344473;28;83523;-91
2021/08/06 00:02:00;;;;;;;;;;;20.60;94.40;20.60;98906.00;;;;342691;28;90085;-93
2021/08/06 00:02:14;;;;;;;;;;;20.60;94.50;20.60;98903.00;;;;343444;28;83391;-89
2021/08/06 00:02:26;;;;;;;;;;;20.60;94.50;20.60;98901.00;;;;342924;28;90369;-89
2021/08/06 00:02:38;;;;;;;;;;;20.60;94.60;20.80;98897.00;;;;342069;28;82553;-91
2021/08/06 00:02:51;;;;;;;;;;;20.60;94.50;20.70;98900.00;;;;342797;28;90035;-90
2021/08/06 00:03:03;;;;;;;;;;;20.60;94.60;20.60;98904.00;;;;344465;28;83413;-90
2021/08/06 00:03:15;;;;;;;;;;;20.60;94.60;20.70;98901.00;;;;344364;28;90851;-90
2021/08/06 00:03:27;;;;;;;;;;;20.60;94.50;20.60;98898.00;;;;345921;28;82650;-90
2021/08/06 00:03:39;;;;;;;;;;;20.60;94.50;20.50;98894.00;;;;345481;28;90421;-89
2021/08/06 00:03:51;;;;;;;;;;;20.60;94.60;20.50;98901.00;;;;345831;28;82603;-89
2021/08/06 00:04:21;;;;;;;;;;;20.60;94.60;20.80;98902.00;;;;343649;28;91377;-89
2021/08/06 00:04:36;;;;;;;;;;;20.60;94.50;20.70;98906.00;;;;344393;28;83452;-89
2021/08/06 00:04:48;;;;;;;;;;;20.60;94.50;20.70;98894.00;;;;344296;28;89541;-90
2021/08/06 00:05:00;;;;;;;;;;;20.60;94.50;20.70;98900.00;;;;343403;28;83490;-89
2021/08/06 00:05:12;;;;;;;;;;;20.60;94.40;20.70;98896.00;;;;345587;28;90647;-89
2021/08/06 00:05:24;;;;;;;;;;;20.60;94.40;20.70;98897.00;;;;345751;28;83632;-89
2021/08/06 00:05:35;;;;;;;;;;;20.60;94.30;20.70;98896.00;;;;342824;28;91622;-89
2021/08/06 00:05:47;;;;;;;;;;;20.60;94.30;20.70;98899.00;;;;346111;28;82563;-90
2021/08/06 00:05:59;;;;;;;;;;;20.60;94.50;20.60;98890.00;;;;344091;28;90423;-90
2021/08/06 00:06:11;;;;;;;;;;;20.60;94.50;20.60;98896.00;;;;344539;28;82695;-89
2021/08/06 00:06:27;;;;;;;;;;;20.60;94.50;20.50;98891.00;;;;345591;28;92256;-89
2021/08/06 00:06:39;;;;;;;;;;;20.60;94.50;20.50;98903.00;;;;344531;28;83509;-91
2021/08/06 00:06:51;;;;;;;;;;;20.60;94.60;20.60;98893.00;;;;341451;28;89564;-89
2021/08/06 00:07:03;;;;;;;;;;;20.50;94.50;20.60;98899.00;;;;341903;28;83628;-89
2021/08/06 00:07:15;;;;;;;;;;;20.50;94.50;20.70;98902.00;;;;343940;28;90666;-89
2021/08/06 00:07:28;;;;;;;;;;;20.50;94.30;20.60;98899.00;;;;345901;28;83497;-89
2021/08/06 00:07:40;;;;;;;;;;;20.50;94.40;20.60;98889.00;;;;342952;28;90485;-89
2021/08/06 00:07:52;;;;;;;;;;;20.50;94.50;20.60;98893.00;;;;344676;28;83577;-89
2021/08/06 00:08:04;;;;;;;;;;;20.60;94.50;20.50;98899.00;;;;342843;28;89482;-89
2021/08/06 00:08:16;;;;;;;;;;;20.60;94.50;20.50;98898.00;;;;343186;28;83457;-89
2021/08/06 00:08:28;;;;;;;;;;;20.50;94.50;20.50;98893.00;;;;344126;28;92562;-90
2021/08/06 00:08:39;;;;;;;;;;;20.50;94.60;20.60;98894.00;;;;344707;28;83536;-90
2021/08/06 00:08:51;;;;;;;;;;;20.50;94.50;20.60;98894.00;;;;342972;28;90662;-89
2021/08/06 00:09:03;;;;;;;;;;;20.50;94.60;20.50;98903.00;;;;345948;28;83506;-89
2021/08/06 00:09:15;;;;;;;;;;;20.50;94.70;20.70;98900.00;;;;342904;28;90820;-90
2021/08/06 00:09:27;;;;;;;;;;;20.50;94.40;20.60;98898.00;;;;344491;28;83563;-90
2021/08/06 00:09:39;;;;;;;;;;;20.50;94.60;20.70;98898.00;;;;344143;28;90801;-89
2021/08/06 00:09:51;;;;;;;;;;;20.50;94.50;20.70;98901.00;;;;344571;28;83477;-89
2021/08/06 00:10:04;;;;;;;;;;;20.50;94.40;20.70;98902.00;;;;344123;28;89599;-90
2021/08/06 00:10:16;;;;;;;;;;;20.50;94.40;20.70;98900.00;;;;345687;28;82583;-89
2021/08/06 00:10:28;;;;;;;;;;;20.60;94.30;20.80;98892.00;;;;340964;28;92654;-89
2021/08/06 00:10:40;;;;;;;;;;;20.50;94.20;20.70;98898.00;;;;342111;28;82522;-90
2021/08/06 00:10:51;;;;;;;;;;;20.50;94.20;20.80;98898.00;;;;344634;28;91614;-89
2021/08/06 00:11:03;;;;;;;;;;;20.60;94.20;20.80;98890.00;;;;341874;28;83524;-89
2021/08/06 00:11:15;;;;;;;;;;;20.60;94.10;20.70;98889.00;;;;341513;28;92079;-89
2021/08/06 00:11:29;;;;;;;;;;;20.60;94.20;20.60;98888.00;;;;343162;28;83521;-89
2021/08/06 00:11:41;;;;;;;;;;;20.50;94.40;20.70;98895.00;;;;341581;28;90873;-89
2021/08/06 00:11:57;;;;;;;;;;;20.60;94.30;20.80;98886.00;;;;343426;28;83587;-89
2021/08/06 00:12:09;;;;;;;;;;;20.60;94.20;20.70;98900.00;;;;341301;28;91591;-89
2021/08/06 00:12:21;;;;;;;;;;;20.60;94.30;20.70;98890.00;;;;346165;28;82487;-91
2021/08/06 00:12:33;;;;;;;;;;;20.60;94.30;20.70;98896.00;;;;342881;28;92537;-91
2021/08/06 00:12:45;;;;;;;;;;;20.60;94.70;20.70;98892.00;;;;343319;28;83442;-89
2021/08/06 00:12:56;;;;;;;;;;;20.60;94.60;20.60;98900.00;;;;341542;28;91262;-89
2021/08/06 00:13:08;;;;;;;;;;;20.60;94.50;20.60;98892.00;;;;342044;28;83377;-89
2021/08/06 00:13:20;;;;;;;;;;;20.60;94.50;20.50;98892.00;;;;342098;28;91517;-90
2021/08/06 00:13:32;;;;;;;;;;;20.60;94.60;20.60;98897.00;;;;343355;28;82505;-89
2021/08/06 00:13:44;;;;;;;;;;;20.60;94.70;20.60;98897.00;;;;341645;28;90096;-89
2021/08/06 00:13:56;;;;;;;;;;;20.50;94.50;20.60;98894.00;;;;343339;28;83466;-89
2021/08/06 00:14:08;;;;;;;;;;;20.50;94.60;20.60;98897.00;;;;344315;28;90662;-90
2021/08/06 00:14:20;;;;;;;;;;;20.50;94.50;20.60;98898.00;;;;342330;28;83293;-89
2021/08/06 00:14:32;;;;;;;;;;;20.50;94.50;20.60;98897.00;;;;345673;28;92659;-89
2021/08/06 00:14:44;;;;;;;;;;;20.50;94.70;20.60;98898.00;;;;341866;28;83543;-89
2021/08/06 00:14:56;;;;;;;;;;;20.50;94.90;20.50;98902.00;;;;345642;28;90464;-89
2021/08/06 00:15:09;;;;;;;;;;;20.50;94.80;20.50;98895.00;;;;341821;28;83507;-89
2021/08/06 00:15:21;;;;;;;;;;;20.50;94.70;20.50;98904.00;;;;342591;28;88443;-89
2021/08/06 00:15:32;;;;;;;;;;;20.50;94.70;20.60;98904.00;;;;343258;28;83505;-89
2021/08/06 00:15:44;;;;;;;;;;;20.50;94.60;20.70;98908.00;;;;344165;28;89443;-89
2021/08/06 00:15:57;;;;;;;;;;;20.50;94.60;20.80;98904.00;;;;343299;28;83574;-89
2021/08/06 00:16:09;;;;;;;;;;;20.50;94.60;20.70;98904.00;;;;342935;28;90864;-89
2021/08/06 00:16:21;;;;;;;;;;;20.50;94.60;20.80;98902.00;;;;344821;28;83635;-90
2021/08/06 00:16:33;;;;;;;;;;;20.50;94.50;20.80;98896.00;;;;342925;28;92658;-89
2021/08/06 00:16:45;;;;;;;;;;;20.60;94.50;20.80;98898.00;;;;343256;28;83596;-89
2021/08/06 00:16:57;;;;;;;;;;;20.50;94.40;20.70;98897.00;;;;344307;28;91989;-89
2021/08/06 00:17:09;;;;;;;;;;;20.50;94.30;20.80;98896.00;;;;343207;28;83510;-89
2021/08/06 00:17:21;;;;;;;;;;;20.60;94.30;20.80;98900.00;;;;340155;28;91865;-90
2021/08/06 00:17:33;;;;;;;;;;;20.60;94.30;20.80;98887.00;;;;343204;28;83521;-89
2021/08/06 00:17:45;;;;;;;;;;;20.60;94.30;20.80;98898.00;;;;344281;28;91323;-89
2021/08/06 00:17:57;;;;;;;;;;;20.60;94.30;20.70;98895.00;;;;343466;28;82340;-89
2021/08/06 00:18:09;;;;;;;;;;;20.60;94.60;20.70;98892.00;;;;345568;28;89072;-89
2021/08/06 00:18:21;;;;;;;;;;;20.60;94.70;20.70;98903.00;;;;341863;28;83274;-89
2021/08/06 00:18:32;;;;;;;;;;;20.60;94.50;20.70;98890.00;;;;339966;28;91305;-89
2021/08/06 00:18:44;;;;;;;;;;;20.60;94.60;20.60;98892.00;;;;344791;28;82509;-89
2021/08/06 00:18:56;;;;;;;;;;;20.60;94.80;20.70;98897.00;;;;344285;28;90151;-89
2021/08/06 00:19:08;;;;;;;;;;;20.60;94.50;20.70;98891.00;;;;341878;28;82510;-90
2021/08/06 00:19:20;;;;;;;;;;;20.60;94.70;20.80;98893.00;;;;342108;28;90991;-89
2021/08/06 00:19:32;;;;;;;;;;;20.60;94.50;20.70;98887.00;;;;343183;28;83623;-88
2021/08/06 00:19:43;;;;;;;;;;;20.60;94.60;20.60;98888.00;;;;341577;28;91610;-90
2021/08/06 00:19:55;;;;;;;;;;;20.60;94.70;20.50;98888.00;;;;343336;28;82612;-89
2021/08/06 00:20:08;;;;;;;;;;;20.60;94.90;20.70;98881.00;;;;341529;28;91770;-89
2021/08/06 00:20:19;;;;;;;;;;;20.60;94.80;20.70;98884.00;;;;343521;28;83659;-89
2021/08/06 00:20:31;;;;;;;;;;;20.60;94.80;20.60;98884.00;;;;342964;28;90056;-89
2021/08/06 00:20:44;;;;;;;;;;;20.60;94.90;20.60;98887.00;;;;344729;28;82476;-89
2021/08/06 00:20:56;;;;;;;;;;;20.60;94.90;20.60;98893.00;;;;342738;28;90127;-89
2021/08/06 00:21:07;;;;;;;;;;;20.50;94.90;20.60;98888.00;;;;343292;28;83456;-90
2021/08/06 00:21:19;;;;;;;;;;;20.60;94.90;20.60;98887.00;;;;342675;28;90935;-89
2021/08/06 00:21:31;;;;;;;;;;;20.60;94.80;20.60;98885.00;;;;341763;28;83538;-90
2021/08/06 00:21:43;;;;;;;;;;;20.50;94.70;20.70;98886.00;;;;342897;28;90629;-90
2021/08/06 00:21:55;;;;;;;;;;;20.60;94.70;20.60;98886.00;;;;343446;28;82473;-89
2021/08/06 00:22:06;;;;;;;;;;;20.60;94.90;20.70;98890.00;;;;342889;28;89262;-89
2021/08/06 00:22:18;;;;;;;;;;;20.60;94.80;20.70;98887.00;;;;343233;28;83507;-90
2021/08/06 00:22:30;;;;;;;;;;;20.60;94.80;20.70;98884.00;;;;346810;27;91593;-90
2021/08/06 00:22:42;;;;;;;;;;;20.60;94.80;20.70;98894.00;;;;347424;28;83538;-89
2021/08/06 00:22:54;;;;;;;;;;;20.60;94.90;20.70;98891.00;;;;344320;28;90915;-89
2021/08/06 00:23:06;;;;;;;;;;;20.60;94.80;20.70;98885.00;;;;344728;28;83460;-88
2021/08/06 00:23:18;;;;;;;;;;;20.50;94.80;20.60;98886.00;;;;344159;28;90508;-90
2021/08/06 00:23:30;;;;;;;;;;;20.60;95.00;20.60;98881.00;;;;343352;28;82530;-90
2021/08/06 00:23:43;;;;;;;;;;;20.50;95.00;20.60;98884.00;;;;344284;28;90817;-90
2021/08/06 00:23:54;;;;;;;;;;;20.50;95.20;20.60;98886.00;;;;343302;28;83592;-89
2021/08/06 00:24:06;;;;;;;;;;;20.50;95.10;20.60;98890.00;;;;344220;28;89550;-89
2021/08/06 00:24:18;;;;;;;;;;;20.50;95.00;20.60;98892.00;;;;344699;28;83342;-91
2021/08/06 00:24:30;;;;;;;;;;;20.60;95.10;20.50;98885.00;;;;342864;28;92118;-89
2021/08/06 00:24:42;;;;;;;;;;;20.50;95.10;20.50;98885.00;;;;346068;28;83465;-90
2021/08/06 00:24:53;;;;;;;;;;;20.50;94.90;20.50;98889.00;;;;342507;28;90608;-91
2021/08/06 00:25:06;;;;;;;;;;;20.50;95.10;20.60;98886.00;;;;343355;28;83407;-89
2021/08/06 00:25:18;;;;;;;;;;;20.50;94.90;20.60;98885.00;;;;344217;28;92006;-90
2021/08/06 00:25:30;;;;;;;;;;;20.50;94.90;20.60;98892.00;;;;345605;28;83613;-91
2021/08/06 00:25:41;;;;;;;;;;;20.50;95.10;20.50;98893.00;;;;345683;28;91480;-89
2021/08/06 00:25:53;;;;;;;;;;;20.50;95.10;20.60;98885.00;;;;344642;28;82562;-89
2021/08/06 00:26:05;;;;;;;;;;;20.50;95.00;20.60;98887.00;;;;342678;28;90138;-89
2021/08/06 00:26:17;;;;;;;;;;;20.50;94.90;20.60;98889.00;;;;344479;28;82617;-88
2021/08/06 00:26:29;;;;;;;;;;;20.50;94.80;20.70;98884.00;;;;345519;28;92239;-89
2021/08/06 00:26:41;;;;;;;;;;;20.50;94.70;20.70;98886.00;;;;344235;28;82618;-90
2021/08/06 00:26:53;;;;;;;;;;;20.50;94.90;20.70;98890.00;;;;344036;28;91624;-89
2021/08/06 00:27:05;;;;;;;;;;;20.50;95.20;20.60;98891.00;;;;343006;28;83577;-89
2021/08/06 00:27:17;;;;;;;;;;;20.50;95.30;20.50;98891.00;;;;342591;28;91135;-89
2021/08/06 00:27:30;;;;;;;;;;;20.50;95.10;20.60;98888.00;;;;343123;28;83501;-89
2021/08/06 00:27:42;;;;;;;;;;;20.50;95.10;20.60;98883.00;;;;342859;28;91145;-89
2021/08/06 00:27:55;;;;;;;;;;;20.50;95.10;20.60;98888.00;;;;343439;28;82526;-89
2021/08/06 00:28:07;;;;;;;;;;;20.50;95.40;20.50;98887.00;;;;342950;28;91493;-89
2021/08/06 00:28:18;;;;;;;;;;;20.50;95.00;20.50;98883.00;;;;343915;28;83611;-90
2021/08/06 00:28:30;;;;;;;;;;;20.50;95.10;20.50;98884.00;;;;343671;28;91859;-89
2021/08/06 00:28:42;;;;;;;;;;;20.50;95.20;20.60;98881.00;;;;343314;28;83513;-89
2021/08/06 00:28:54;;;;;;;;;;;20.50;95.30;20.50;98883.00;;;;342969;28;91137;-89
2021/08/06 00:29:06;;;;;;;;;;;20.50;95.20;20.50;98884.00;;;;341962;28;83549;-89
2021/08/06 00:29:18;;;;;;;;;;;20.50;95.20;20.50;98883.00;;;;344129;28;90776;-90
2021/08/06 00:29:30;;;;;;;;;;;20.50;95.20;20.60;98880.00;;;;343296;28;83479;-89
2021/08/06 00:29:42;;;;;;;;;;;20.50;95.10;20.50;98886.00;;;;342930;28;91170;-89
2021/08/06 00:29:54;;;;;;;;;;;20.50;95.30;20.50;98882.00;;;;341987;28;83436;-89
2021/08/06 00:30:06;;;;;;;;;;;20.50;95.20;20.60;98880.00;;;;341501;28;91790;-90
2021/08/06 00:30:17;;;;;;;;;;;20.50;95.00;20.70;98886.00;;;;343203;28;83664;-89
2021/08/06 00:30:29;;;;;;;;;;;20.50;94.90;20.70;98877.00;;;;341425;28;92139;-89
2021/08/06 00:30:41;;;;;;;;;;;20.50;95.00;20.60;98882.00;;;;341329;28;83619;-91
2021/08/06 00:30:53;;;;;;;;;;;20.50;95.10;20.70;98883.00;;;;342854;28;91924;-90
2021/08/06 00:31:05;;;;;;;;;;;20.50;94.90;20.70;98878.00;;;;344574;28;82424;-89
2021/08/06 00:31:17;;;;;;;;;;;20.50;95.00;20.70;98880.00;;;;343191;28;91367;-89
2021/08/06 00:31:29;;;;;;;;;;;20.50;94.90;20.70;98871.00;;;;344490;28;83548;-91
2021/08/06 00:31:41;;;;;;;;;;;20.50;95.00;20.60;98876.00;;;;344313;28;90504;-89
2021/08/06 00:31:53;;;;;;;;;;;20.50;95.00;20.60;98878.00;;;;342204;28;83313;-89
2021/08/06 00:32:05;;;;;;;;;;;20.50;95.00;20.60;98876.00;;;;344122;28;89443;-89
2021/08/06 00:32:17;;;;;;;;;;;20.50;95.20;20.60;98879.00;;;;344539;28;82582;-89
2021/08/06 00:32:28;;;;;;;;;;;20.50;95.30;20.60;98873.00;;;;340259;28;91335;-89
2021/08/06 00:32:40;;;;;;;;;;;20.50;95.20;20.50;98871.00;;;;344566;28;83354;-90
2021/08/06 00:32:52;;;;;;;;;;;20.50;95.30;20.50;98881.00;;;;342771;28;91770;-89
2021/08/06 00:33:04;;;;;;;;;;;20.50;95.60;20.50;98881.00;;;;341993;28;83432;-89
2021/08/06 00:33:16;;;;;;;;;;;20.50;95.50;20.60;98879.00;;;;340247;28;90877;-89
2021/08/06 00:33:28;;;;;;;;;;;20.40;95.40;20.60;98880.00;;;;343129;28;83541;-91
2021/08/06 00:33:40;;;;;;;;;;;20.50;95.30;20.70;98883.00;;;;343888;28;90419;-89
2021/08/06 00:33:52;;;;;;;;;;;20.50;95.20;20.60;98879.00;;;;343440;28;83385;-89
2021/08/06 00:34:03;;;;;;;;;;;20.50;95.40;20.50;98883.00;;;;341407;28;89581;-89
2021/08/06 00:34:15;;;;;;;;;;;20.40;95.60;20.50;98878.00;;;;343103;28;83436;-91
2021/08/06 00:34:27;;;;;;;;;;;20.50;95.80;20.60;98877.00;;;;343340;28;92148;-89
2021/08/06 00:34:39;;;;;;;;;;;20.40;95.60;20.70;98876.00;;;;345897;28;83606;-89
2021/08/06 00:34:51;;;;;;;;;;;20.50;95.50;20.70;98883.00;;;;343238;28;89068;-89
2021/08/06 00:35:03;;;;;;;;;;;20.40;95.40;20.70;98877.00;;;;343339;28;82513;-89
2021/08/06 00:35:15;;;;;;;;;;;20.50;95.40;20.70;98879.00;;;;342801;28;90563;-90
2021/08/06 00:35:26;;;;;;;;;;;20.50;95.40;20.70;98885.00;;;;344555;28;83663;-89
2021/08/06 00:35:38;;;;;;;;;;;20.50;95.30;20.70;98886.00;;;;344279;28;90188;-90
2021/08/06 00:35:50;;;;;;;;;;;20.50;95.20;20.70;98881.00;;;;343425;28;83422;-89
2021/08/06 00:36:02;;;;;;;;;;;20.50;95.20;20.70;98887.00;;;;344326;28;89897;-89
2021/08/06 00:36:14;;;;;;;;;;;20.50;95.30;20.70;98879.00;;;;341923;28;82510;-89
2021/08/06 00:36:25;;;;;;;;;;;20.50;95.40;20.60;98886.00;;;;345548;28;92716;-89
2021/08/06 00:36:37;;;;;;;;;;;20.50;95.40;20.50;98875.00;;;;343389;28;83505;-89
2021/08/06 00:36:49;;;;;;;;;;;20.50;95.50;20.60;98880.00;;;;344240;28;90636;-89
2021/08/06 00:37:01;;;;;;;;;;;20.50;95.40;20.80;98881.00;;;;344799;28;82542;-89
2021/08/06 00:37:13;;;;;;;;;;;20.50;95.40;20.80;98878.00;;;;343783;28;89466;-89
2021/08/06 00:37:25;;;;;;;;;;;20.50;95.50;20.80;98888.00;;;;343432;28;82742;-89
2021/08/06 00:37:36;;;;;;;;;;;20.50;95.40;20.90;98884.00;;;;342839;28;90656;-90
2021/08/06 00:37:49;;;;;;;;;;;20.50;95.30;20.70;98885.00;;;;343283;28;82568;-89
2021/08/06 00:38:01;;;;;;;;;;;20.50;95.30;20.70;98887.00;;;;341349;28;88678;-90
2021/08/06 00:38:13;;;;;;;;;;;20.50;95.40;20.60;98886.00;;;;343294;28;83454;-88
2021/08/06 00:38:25;;;;;;;;;;;20.50;95.40;20.50;98884.00;;;;345351;28;90915;-89
2021/08/06 00:38:37;;;;;;;;;;;20.50;95.70;20.60;98878.00;;;;344694;28;83559;-89
2021/08/06 00:38:48;;;;;;;;;;;20.50;95.40;20.60;98882.00;;;;344118;28;89699;-90
2021/08/06 00:39:00;;;;;;;;;;;20.50;95.30;20.60;98878.00;;;;344693;28;83413;-89
2021/08/06 00:39:12;;;;;;;;;;;20.50;95.40;20.50;98882.00;;;;341546;28;89556;-89
2021/08/06 00:39:24;;;;;;;;;;;20.50;95.30;20.60;98887.00;;;;343098;28;83565;-90
2021/08/06 00:39:36;;;;;;;;;;;20.50;95.20;20.60;98881.00;;;;344003;28;91645;-89
2021/08/06 00:39:48;;;;;;;;;;;20.50;95.10;20.60;98882.00;;;;344520;28;83531;-90
2021/08/06 00:39:59;;;;;;;;;;;20.50;95.40;20.60;98877.00;;;;345630;28;91402;-90
2021/08/06 00:40:12;;;;;;;;;;;20.50;95.60;20.50;98881.00;;;;341774;28;82591;-90
2021/08/06 00:40:24;;;;;;;;;;;20.50;95.50;20.50;98877.00;;;;345621;28;92346;-89
2021/08/06 00:40:36;;;;;;;;;;;20.50;95.60;20.40;98882.00;;;;347066;28;83597;-90
2021/08/06 00:40:48;;;;;;;;;;;20.50;95.50;20.50;98876.00;;;;342612;28;90356;-89
2021/08/06 00:41:00;;;;;;;;;;;20.50;95.60;20.50;98887.00;;;;345938;28;83550;-90
2021/08/06 00:41:12;;;;;;;;;;;20.50;95.60;20.70;98889.00;;;;344122;28;88979;-89
2021/08/06 00:41:23;;;;;;;;;;;20.50;95.60;20.70;98893.00;;;;342999;28;83590;-89
2021/08/06 00:41:36;;;;;;;;;;;20.50;95.60;20.80;98879.00;;;;345406;28;89150;-89
2021/08/06 00:41:48;;;;;;;;;;;20.50;95.60;20.80;98884.00;;;;345829;28;82570;-90
2021/08/06 00:42:00;;;;;;;;;;;20.50;95.50;20.80;98877.00;;;;345439;28;90400;-90
2021/08/06 00:42:11;;;;;;;;;;;20.50;95.40;20.60;98886.00;;;;344453;28;83452;-89
2021/08/06 00:42:23;;;;;;;;;;;20.50;95.40;20.50;98881.00;;;;345655;28;91120;-89
2021/08/06 00:42:35;;;;;;;;;;;20.50;95.50;20.70;98879.00;;;;346071;28;83335;-90
2021/08/06 00:42:47;;;;;;;;;;;20.50;95.50;20.60;98890.00;;;;344005;28;89443;-89
2021/08/06 00:42:59;;;;;;;;;;;20.50;95.60;20.60;98880.00;;;;343148;28;83506;-89
2021/08/06 00:43:11;;;;;;;;;;;20.50;95.60;20.60;98878.00;;;;344188;28;90179;-90
2021/08/06 00:43:22;;;;;;;;;;;20.50;95.60;20.70;98875.00;;;;343506;28;82684;-88
2021/08/06 00:43:34;;;;;;;;;;;20.50;95.40;20.70;98880.00;;;;344270;28;90704;-87
2021/08/06 00:43:46;;;;;;;;;;;20.50;95.30;20.70;98881.00;;;;345839;28;82345;-89
2021/08/06 00:43:58;;;;;;;;;;;20.50;95.30;20.80;98875.00;;;;344297;28;91008;-90
2021/08/06 00:44:10;;;;;;;;;;;20.50;95.40;20.70;98876.00;;;;344549;28;83547;-89
2021/08/06 00:44:22;;;;;;;;;;;20.50;95.40;20.60;98877.00;;;;344188;28;91277;-89
2021/08/06 00:44:34;;;;;;;;;;;20.50;95.50;20.50;98880.00;;;;346150;28;83346;-89
2021/08/06 00:44:46;;;;;;;;;;;20.50;95.70;20.50;98877.00;;;;342809;28;91273;-89
2021/08/06 00:44:58;;;;;;;;;;;20.50;95.80;20.50;98871.00;;;;344587;28;83621;-89
2021/08/06 00:45:10;;;;;;;;;;;20.50;95.90;20.60;98878.00;;;;345668;28;91562;-89
2021/08/06 00:45:22;;;;;;;;;;;20.50;95.70;20.60;98874.00;;;;341672;28;83617;-90
2021/08/06 00:45:33;;;;;;;;;;;20.50;95.60;20.60;98878.00;;;;342647;28;90521;-89
2021/08/06 00:45:45;;;;;;;;;;;20.50;95.50;20.60;98878.00;;;;344260;28;83577;-89
2021/08/06 00:45:58;;;;;;;;;;;20.50;95.40;20.60;98873.00;;;;342817;28;91293;-89
2021/08/06 00:46:16;;;;;;;;;;;20.50;95.50;20.60;98868.00;;;;345777;28;83595;-90
2021/08/06 00:46:28;;;;;;;;;;;20.50;95.50;20.50;98876.00;;;;345808;28;91195;-90
2021/08/06 00:46:40;;;;;;;;;;;20.50;95.90;20.60;98874.00;;;;341970;28;82615;-90
2021/08/06 00:46:52;;;;;;;;;;;20.40;95.40;20.60;98872.00;;;;341529;28;90340;-90
2021/08/06 00:47:04;;;;;;;;;;;20.40;95.40;20.50;98876.00;;;;344750;28;83413;-89
2021/08/06 00:47:16;;;;;;;;;;;20.50;95.50;20.60;98872.00;;;;342905;28;91646;-89
2021/08/06 00:47:28;;;;;;;;;;;20.40;95.40;20.60;98869.00;;;;340492;28;83464;-89
2021/08/06 00:47:39;;;;;;;;;;;20.50;95.40;20.50;98870.00;;;;344035;28;88296;-89
2021/08/06 00:47:52;;;;;;;;;;;20.40;95.60;20.50;98877.00;;;;344513;28;83548;-89
2021/08/06 00:48:04;;;;;;;;;;;20.40;95.70;20.50;98877.00;;;;344269;28;91469;-88
2021/08/06 00:48:16;;;;;;;;;;;20.40;95.70;20.50;98881.00;;;;344706;28;83440;-89
2021/08/06 00:48:28;;;;;;;;;;;20.40;95.70;20.40;98872.00;;;;342816;28;92354;-90
2021/08/06 00:48:40;;;;;;;;;;;20.40;95.70;20.50;98873.00;;;;344610;28;83413;-90
2021/08/06 00:48:52;;;;;;;;;;;20.40;95.60;20.50;98873.00;;;;344127;28;89092;-89
2021/08/06 00:49:04;;;;;;;;;;;20.40;95.50;20.50;98874.00;;;;344529;28;83503;-89
2021/08/06 00:49:16;;;;;;;;;;;20.40;95.40;20.40;98875.00;;;;341381;28;90800;-90
2021/08/06 00:49:28;;;;;;;;;;;20.40;95.50;20.40;98876.00;;;;344863;28;82601;-90
2021/08/06 00:49:40;;;;;;;;;;;20.40;95.60;20.50;98875.00;;;;342733;28;91658;-89
2021/08/06 00:49:52;;;;;;;;;;;20.40;95.50;20.60;98874.00;;;;341844;28;83584;-89
2021/08/06 00:50:04;;;;;;;;;;;20.40;95.60;20.60;98872.00;;;;342704;28;89795;-88
2021/08/06 00:50:16;;;;;;;;;;;20.50;95.60;20.60;98874.00;;;;343097;28;83472;-89
2021/08/06 00:50:28;;;;;;;;;;;20.40;95.50;20.60;98871.00;;;;345433;28;90521;-89
2021/08/06 00:50:40;;;;;;;;;;;20.40;95.60;20.60;98876.00;;;;344403;28;83555;-91
2021/08/06 00:50:52;;;;;;;;;;;20.40;95.70;20.50;98870.00;;;;344024;28;90694;-90
2021/08/06 00:51:04;;;;;;;;;;;20.40;95.50;20.50;98874.00;;;;343162;28;82587;-89
2021/08/06 00:51:16;;;;;;;;;;;20.40;95.60;20.50;98879.00;;;;344260;28;90962;-89
2021/08/06 00:51:28;;;;;;;;;;;20.40;95.80;20.40;98877.00;;;;341886;28;82591;-92
2021/08/06 00:51:40;;;;;;;;;;;20.40;95.90;20.40;98882.00;;;;344148;28;90030;-89
2021/08/06 00:51:52;;;;;;;;;;;20.40;96.00;20.40;98875.00;;;;344555;28;83577;-89
2021/08/06 00:52:04;;;;;;;;;;;20.40;96.00;20.40;98877.00;;;;342851;28;89942;-89
2021/08/06 00:52:16;;;;;;;;;;;20.40;96.00;20.50;98880.00;;;;344158;28;83520;-91
2021/08/06 00:52:27;;;;;;;;;;;20.40;95.80;20.50;98874.00;;;;344379;28;92817;-90
2021/08/06 00:52:39;;;;;;;;;;;20.40;95.60;20.50;98873.00;;;;343380;28;82497;-90
2021/08/06 00:52:51;;;;;;;;;;;20.50;95.70;20.50;98873.00;;;;342219;28;91456;-89
2021/08/06 00:53:03;;;;;;;;;;;20.40;95.80;20.40;98878.00;;;;345983;28;83538;-89
2021/08/06 00:53:15;;;;;;;;;;;20.40;95.80;20.40;98878.00;;;;341582;28;92322;-89
2021/08/06 00:53:27;;;;;;;;;;;20.40;95.80;20.50;98878.00;;;;345751;28;83583;-91
2021/08/06 00:53:39;;;;;;;;;;;20.40;95.80;20.50;98870.00;;;;344254;28;91717;-89
2021/08/06 00:53:51;;;;;;;;;;;20.40;95.80;20.40;98868.00;;;;344646;28;83485;-89
2021/08/06 00:54:03;;;;;;;;;;;20.40;95.90;20.50;98877.00;;;;342856;28;91446;-89
2021/08/06 00:54:15;;;;;;;;;;;20.40;95.90;20.40;98871.00;;;;343122;28;83481;-89
2021/08/06 00:54:27;;;;;;;;;;;20.40;95.80;20.40;98875.00;;;;344077;28;91212;-89
2021/08/06 00:54:39;;;;;;;;;;;20.40;95.90;20.40;98875.00;;;;344697;28;83388;-89
2021/08/06 00:54:51;;;;;;;;;;;20.40;96.10;20.40;98882.00;;;;344237;28;91302;-89
2021/08/06 00:55:04;;;;;;;;;;;20.40;96.20;20.30;98875.00;;;;346032;28;83561;-89
2021/08/06 00:55:16;;;;;;;;;;;20.40;96.20;20.40;98869.00;;;;342705;28;91756;-90
2021/08/06 00:55:28;;;;;;;;;;;20.40;96.10;20.50;98879.00;;;;344981;28;83567;-90
2021/08/06 00:55:40;;;;;;;;;;;20.40;95.90;20.50;98870.00;;;;340000;28;89520;-89
2021/08/06 00:55:52;;;;;;;;;;;20.40;95.90;20.60;98878.00;;;;345638;28;83609;-90
2021/08/06 00:56:04;;;;;;;;;;;20.40;95.80;20.50;98878.00;;;;343998;28;89986;-89
2021/08/06 00:56:18;;;;;;;;;;;20.40;96.00;20.50;98870.00;;;;343158;28;83504;-90
2021/08/06 00:56:30;;;;;;;;;;;20.40;95.70;20.50;98871.00;;;;343974;28;89967;-89
2021/08/06 00:56:41;;;;;;;;;;;20.40;95.70;20.50;98877.00;;;;344678;28;83360;-89
2021/08/06 00:56:53;;;;;;;;;;;20.40;95.70;20.50;98872.00;;;;344085;28;89211;-89
2021/08/06 00:57:05;;;;;;;;;;;20.40;95.90;20.40;98870.00;;;;343347;28;82589;-89
2021/08/06 00:57:18;;;;;;;;;;;20.40;96.00;20.50;98880.00;;;;342984;28;90258;-89
2021/08/06 00:57:30;;;;;;;;;;;20.40;96.10;20.50;98877.00;;;;344720;28;83302;-89
2021/08/06 00:57:42;;;;;;;;;;;20.40;95.90;20.50;98877.00;;;;344269;28;91211;-89
2021/08/06 00:57:54;;;;;;;;;;;20.40;96.10;20.40;98881.00;;;;344626;28;83346;-89
2021/08/06 00:58:06;;;;;;;;;;;20.40;96.00;20.40;98883.00;;;;342858;28;89922;-88
2021/08/06 00:58:18;;;;;;;;;;;20.40;96.10;20.40;98871.00;;;;343415;28;82491;-89
2021/08/06 00:58:30;;;;;;;;;;;20.40;96.00;20.30;98876.00;;;;342827;28;92790;-91
2021/08/06 00:58:42;;;;;;;;;;;20.40;96.20;20.40;98877.00;;;;344570;28;83427;-89
2021/08/06 00:58:54;;;;;;;;;;;20.40;96.20;20.40;98879.00;;;;344176;28;90660;-89
2021/08/06 00:59:05;;;;;;;;;;;20.40;96.20;20.40;98877.00;;;;343217;28;82496;-89
2021/08/06 00:59:17;;;;;;;;;;;20.40;96.10;20.50;98875.00;;;;346571;28;90928;-89
2021/08/06 00:59:29;;;;;;;;;;;20.40;96.10;20.40;98878.00;;;;343198;28;82653;-90
2021/08/06 00:59:41;;;;;;;;;;;20.40;96.00;20.30;98869.00;;;;342603;28;89593;-90
2021/08/06 00:59:53;;;;;;;;;;;20.40;96.10;20.30;98862.00;;;;345906;28;83528;-89